Time;durP1;ratioP1;P1;durP2;ratioP2;P2;SDS_P1;SDS_P2;PMS_P1;PMS_P2;Temp;Humidity;BMP_temperature;BMP_pressure;BME280_temperature;BME280_humidity;BME280_pressure;Samples;Min_cycle;Max_cycle;Signal;HPM_P1;HPM_P2
2022/01/19 00:00:17;;;;;;;44.63;31.00;;;;;;;;;;5105330;28;20399;-86
2022/01/19 00:02:44;;;;;;;45.20;30.50;;;;;;;;;;5105205;28;20570;-86
2022/01/19 00:05:12;;;;;;;44.65;30.95;;;;;;;;;;5104957;28;20390;-86
2022/01/19 00:07:39;;;;;;;44.47;31.50;;;;;;;;;;5106022;28;20472;-86
2022/01/19 00:10:11;;;;;;;44.05;31.80;;;;;;;;;;5105228;28;20451;-86
2022/01/19 00:12:42;;;;;;;45.38;31.77;;;;;;;;;;5105682;28;20407;-86
2022/01/19 00:15:11;;;;;;;47.77;32.33;;;;;;;;;;5105355;28;20466;-87
2022/01/19 00:17:38;;;;;;;44.75;30.70;;;;;;;;;;5105914;28;20430;-86
2022/01/19 00:20:07;;;;;;;46.97;32.17;;;;;;;;;;5105300;28;20463;-86
2022/01/19 00:22:34;;;;;;;50.20;32.85;;;;;;;;;;5105447;28;20398;-86
2022/01/19 00:25:01;;;;;;;50.22;34.10;;;;;;;;;;5106728;28;20402;-86
2022/01/19 00:27:29;;;;;;;46.72;33.28;;;;;;;;;;5101729;28;20390;-86
2022/01/19 00:29:56;;;;;;;50.92;34.30;;;;;;;;;;5106060;28;20398;-86
2022/01/19 00:32:25;;;;;;;51.40;33.90;;;;;;;;;;5105302;28;20395;-86
2022/01/19 00:34:52;;;;;;;49.72;34.67;;;;;;;;;;5105830;28;20892;-86
2022/01/19 00:37:19;;;;;;;50.47;33.67;;;;;;;;;;5105658;28;20394;-86
2022/01/19 00:39:46;;;;;;;50.17;33.92;;;;;;;;;;5105628;28;20447;-86
2022/01/19 00:42:12;;;;;;;52.20;33.53;;;;;;;;;;5105818;28;20395;-86
2022/01/19 00:44:41;;;;;;;48.85;33.10;;;;;;;;;;5105857;28;20410;-86
2022/01/19 00:47:08;;;;;;;47.50;33.30;;;;;;;;;;5106036;28;20405;-86
2022/01/19 00:49:34;;;;;;;48.10;32.40;;;;;;;;;;5109987;28;20449;-86
2022/01/19 00:52:01;;;;;;;45.97;31.63;;;;;;;;;;5110572;28;20403;-86
2022/01/19 00:54:28;;;;;;;47.95;31.40;;;;;;;;;;5106548;28;20395;-84
2022/01/19 00:56:55;;;;;;;45.95;31.88;;;;;;;;;;5098188;28;20873;-87
2022/01/19 00:59:22;;;;;;;45.53;31.42;;;;;;;;;;5112655;28;20424;-87
2022/01/19 01:01:50;;;;;;;45.13;31.42;;;;;;;;;;5115223;28;20424;-86
2022/01/19 01:04:18;;;;;;;44.70;30.93;;;;;;;;;;5127611;28;20387;-87
2022/01/19 01:06:45;;;;;;;46.38;29.67;;;;;;;;;;5116202;28;20395;-86
2022/01/19 01:09:12;;;;;;;46.05;31.25;;;;;;;;;;5109023;28;20418;-86
2022/01/19 01:11:47;;;;;;;40.80;28.75;;;;;;;;;;5108359;28;20451;-86
2022/01/19 01:17:13;;;;;;;40.20;27.93;;;;;;;;;;5108938;28;20452;-87
2022/01/19 01:19:40;;;;;;;40.85;28.10;;;;;;;;;;5106650;28;20402;-87
2022/01/19 01:22:09;;;;;;;40.83;27.60;;;;;;;;;;5108600;28;20394;-87
2022/01/19 01:24:36;;;;;;;38.35;26.95;;;;;;;;;;5106689;28;21091;-87
2022/01/19 01:27:04;;;;;;;41.60;27.80;;;;;;;;;;5108635;28;20735;-87
2022/01/19 01:29:31;;;;;;;41.33;28.13;;;;;;;;;;5108820;28;20511;-86
2022/01/19 01:31:59;;;;;;;40.67;28.10;;;;;;;;;;5109032;28;20395;-87
2022/01/19 01:34:26;;;;;;;39.45;27.15;;;;;;;;;;5104138;28;20925;-87
2022/01/19 01:36:53;;;;;;;38.15;26.67;;;;;;;;;;5108039;27;20784;-86
2022/01/19 01:39:20;;;;;;;41.58;27.20;;;;;;;;;;5107668;28;20455;-86
2022/01/19 01:41:47;;;;;;;37.47;25.70;;;;;;;;;;5107690;28;20394;-87
2022/01/19 01:44:14;;;;;;;36.63;26.52;;;;;;;;;;5108176;28;20399;-87
2022/01/19 01:46:48;;;;;;;37.30;25.98;;;;;;;;;;5108175;28;20950;-86
2022/01/19 01:49:24;;;;;;;39.30;26.67;;;;;;;;;;5105621;28;20468;-87
2022/01/19 01:54:35;;;;;;;36.53;25.67;;;;;;;;;;5105113;28;20386;-87
2022/01/19 01:57:02;;;;;;;39.22;27.15;;;;;;;;;;5107967;28;20390;-87
2022/01/19 01:59:29;;;;;;;37.08;25.98;;;;;;;;;;5106459;28;21659;-86
2022/01/19 02:01:56;;;;;;;38.92;25.75;;;;;;;;;;5108033;28;20390;-87
2022/01/19 02:04:25;;;;;;;39.17;25.83;;;;;;;;;;5107257;28;20390;-86
2022/01/19 02:09:40;;;;;;;40.08;26.27;;;;;;;;;;5099710;28;20414;-86
2022/01/19 02:23:22;;;;;;;37.65;25.10;;;;;;;;;;5106209;28;20468;-86
2022/01/19 02:25:50;;;;;;;35.67;24.90;;;;;;;;;;5107326;28;20418;-86
2022/01/19 02:36:49;;;;;;;36.17;25.08;;;;;;;;;;5106244;28;20978;-86
2022/01/19 02:42:05;;;;;;;36.53;25.65;;;;;;;;;;5106949;28;20471;-86
2022/01/19 02:50:06;;;;;;;34.70;25.08;;;;;;;;;;5081511;28;20409;-86
2022/01/19 02:52:35;;;;;;;36.72;24.88;;;;;;;;;;5107332;28;21335;-86
2022/01/19 02:55:01;;;;;;;34.22;24.13;;;;;;;;;;5103775;28;20398;-86
2022/01/19 02:57:28;;;;;;;32.58;24.33;;;;;;;;;;5106304;28;20451;-86
2022/01/19 03:10:53;;;;;;;36.08;24.48;;;;;;;;;;5094841;28;20448;-86
2022/01/19 03:13:20;;;;;;;33.15;23.85;;;;;;;;;;5106826;28;20406;-86
2022/01/19 03:15:46;;;;;;;33.10;23.83;;;;;;;;;;5106940;28;20395;-85
2022/01/19 03:18:13;;;;;;;33.22;23.90;;;;;;;;;;5106338;28;20812;-85
2022/01/19 03:20:40;;;;;;;32.28;23.15;;;;;;;;;;5107062;28;20467;-86
2022/01/19 03:23:16;;;;;;;32.33;23.52;;;;;;;;;;5107078;28;20395;-86
2022/01/19 03:25:43;;;;;;;31.92;22.95;;;;;;;;;;5106974;28;20395;-86
2022/01/19 03:28:10;;;;;;;32.97;22.77;;;;;;;;;;5106816;28;20419;-86
2022/01/19 03:30:37;;;;;;;33.60;23.63;;;;;;;;;;5107505;28;20424;-86
2022/01/19 03:33:04;;;;;;;32.40;23.17;;;;;;;;;;5107479;28;20409;-86
2022/01/19 03:35:31;;;;;;;36.65;23.80;;;;;;;;;;5107040;28;20455;-86
2022/01/19 03:37:58;;;;;;;34.07;24.17;;;;;;;;;;5107458;28;20402;-86
2022/01/19 03:40:26;;;;;;;34.63;24.02;;;;;;;;;;5098313;28;20402;-86
2022/01/19 03:42:53;;;;;;;34.38;23.38;;;;;;;;;;5107524;28;20866;-86
2022/01/19 03:45:20;;;;;;;34.20;23.80;;;;;;;;;;5107598;28;20398;-86
2022/01/19 03:47:52;;;;;;;35.08;23.45;;;;;;;;;;5103443;28;20402;-86
2022/01/19 03:50:19;;;;;;;35.03;23.27;;;;;;;;;;5107444;28;20458;-85
2022/01/19 03:52:46;;;;;;;34.88;23.67;;;;;;;;;;5111255;28;20451;-86
2022/01/19 03:55:13;;;;;;;35.83;23.95;;;;;;;;;;5112239;28;20387;-86
2022/01/19 03:57:41;;;;;;;34.45;23.58;;;;;;;;;;5125649;28;20374;-86
2022/01/19 04:00:10;;;;;;;34.53;24.08;;;;;;;;;;5111672;28;20471;-86
2022/01/19 04:02:36;;;;;;;33.87;23.53;;;;;;;;;;5106588;28;20398;-86
2022/01/19 04:05:14;;;;;;;33.05;23.33;;;;;;;;;;5106544;28;20788;-86
2022/01/19 04:07:41;;;;;;;32.27;22.43;;;;;;;;;;5106548;28;20502;-86
2022/01/19 04:10:09;;;;;;;29.95;22.83;;;;;;;;;;5105865;28;20706;-86
2022/01/19 04:15:20;;;;;;;34.60;23.00;;;;;;;;;;5105846;28;20398;-86
2022/01/19 04:17:51;;;;;;;31.27;22.08;;;;;;;;;;5106950;28;20398;-86
2022/01/19 04:20:24;;;;;;;32.63;23.02;;;;;;;;;;5106648;28;20402;-86
2022/01/19 04:22:51;;;;;;;34.30;23.02;;;;;;;;;;5107457;28;20954;-86
2022/01/19 04:25:18;;;;;;;33.17;22.75;;;;;;;;;;5109861;28;20405;-86
2022/01/19 04:27:45;;;;;;;31.83;22.63;;;;;;;;;;5110065;28;20402;-86
2022/01/19 04:30:15;;;;;;;33.95;22.95;;;;;;;;;;5110418;28;20414;-86
2022/01/19 04:32:49;;;;;;;34.50;22.97;;;;;;;;;;5110781;28;20391;-87
2022/01/19 04:35:20;;;;;;;32.42;22.35;;;;;;;;;;5109952;28;20398;-87
2022/01/19 04:38:40;;;;;;;30.38;22.40;;;;;;;;;;5110592;28;20410;-86
2022/01/19 04:44:10;;;;;;;34.27;22.37;;;;;;;;;;5108248;28;20386;-86
2022/01/19 05:03:18;;;;;;;31.17;20.58;;;;;;;;;;5111518;28;20390;-86
2022/01/19 05:05:52;;;;;;;29.27;20.48;;;;;;;;;;5129108;28;20406;-85
2022/01/19 05:08:37;;;;;;;30.17;21.20;;;;;;;;;;5132561;27;20422;-86
2022/01/19 05:13:52;;;;;;;30.98;20.67;;;;;;;;;;5126036;28;20568;-86
2022/01/19 05:16:20;;;;;;;29.17;20.00;;;;;;;;;;5130932;28;20401;-84
2022/01/19 05:18:47;;;;;;;32.08;21.60;;;;;;;;;;5130823;28;20395;-84
2022/01/19 05:21:16;;;;;;;31.25;21.00;;;;;;;;;;5130771;28;20385;-85
2022/01/19 05:23:43;;;;;;;31.50;20.25;;;;;;;;;;5126121;28;20391;-85
2022/01/19 05:26:10;;;;;;;28.08;18.83;;;;;;;;;;5110715;28;20410;-86
2022/01/19 05:28:38;;;;;;;26.73;18.98;;;;;;;;;;5111273;27;20391;-86
2022/01/19 05:31:05;;;;;;;26.42;18.13;;;;;;;;;;5111096;28;20459;-86
2022/01/19 05:33:32;;;;;;;28.55;17.83;;;;;;;;;;5110858;28;20791;-86
2022/01/19 05:35:59;;;;;;;25.90;17.90;;;;;;;;;;5110202;28;20403;-86
2022/01/19 05:38:27;;;;;;;27.17;18.45;;;;;;;;;;5106031;28;20434;-85
2022/01/19 05:40:54;;;;;;;27.38;18.48;;;;;;;;;;5109313;28;20448;-86
2022/01/19 05:43:21;;;;;;;28.10;18.38;;;;;;;;;;5108350;28;20399;-86
2022/01/19 05:45:48;;;;;;;25.02;17.85;;;;;;;;;;5108613;28;20866;-86
2022/01/19 05:48:15;;;;;;;28.10;19.02;;;;;;;;;;5108780;28;20398;-86
2022/01/19 05:50:42;;;;;;;31.05;20.25;;;;;;;;;;5108937;28;20889;-86
2022/01/19 05:53:09;;;;;;;29.98;19.95;;;;;;;;;;5101007;28;20398;-86
2022/01/19 05:55:37;;;;;;;28.02;19.77;;;;;;;;;;5101266;28;20456;-86
2022/01/19 05:58:04;;;;;;;29.35;19.60;;;;;;;;;;5098662;28;20404;-86
2022/01/19 06:00:31;;;;;;;29.25;19.90;;;;;;;;;;5104635;28;20450;-85
2022/01/19 06:02:58;;;;;;;27.17;18.42;;;;;;;;;;5107515;28;20398;-86
2022/01/19 06:05:25;;;;;;;28.73;19.40;;;;;;;;;;5103399;28;20399;-86
2022/01/19 06:08:09;;;;;;;26.08;19.00;;;;;;;;;;5106951;28;20402;-87
2022/01/19 06:10:46;;;;;;;28.27;20.17;;;;;;;;;;5102702;28;20422;-86
2022/01/19 06:13:15;;;;;;;31.40;20.75;;;;;;;;;;5104977;28;20394;-85
2022/01/19 06:15:42;;;;;;;29.38;19.73;;;;;;;;;;5097220;28;20461;-86
2022/01/19 06:18:10;;;;;;;29.70;19.47;;;;;;;;;;5095963;28;20403;-85
2022/01/19 06:20:40;;;;;;;33.13;20.33;;;;;;;;;;5096907;28;20401;-86
2022/01/19 06:23:07;;;;;;;31.40;20.60;;;;;;;;;;5098232;28;20400;-86
2022/01/19 06:25:34;;;;;;;29.88;20.48;;;;;;;;;;5099456;28;20410;-87
2022/01/19 06:28:03;;;;;;;29.65;20.92;;;;;;;;;;5100483;28;20887;-86
2022/01/19 06:30:30;;;;;;;29.23;20.45;;;;;;;;;;5100900;28;20422;-86
2022/01/19 06:32:57;;;;;;;29.87;21.10;;;;;;;;;;5098814;28;20441;-86
2022/01/19 06:35:24;;;;;;;31.77;20.50;;;;;;;;;;5098863;28;21295;-85
2022/01/19 06:37:51;;;;;;;32.65;21.35;;;;;;;;;;5101576;28;20459;-86
2022/01/19 06:40:20;;;;;;;31.70;20.90;;;;;;;;;;5102025;28;20409;-86
2022/01/19 06:42:47;;;;;;;31.35;21.10;;;;;;;;;;5105046;28;20451;-86
2022/01/19 06:45:16;;;;;;;36.97;22.13;;;;;;;;;;5110843;28;20414;-86
2022/01/19 06:47:43;;;;;;;33.40;22.30;;;;;;;;;;5115899;28;20375;-86
2022/01/19 06:50:14;;;;;;;34.40;21.88;;;;;;;;;;5118292;28;20838;-83
2022/01/19 06:52:42;;;;;;;34.92;22.50;;;;;;;;;;5105602;28;20398;-84
2022/01/19 06:55:09;;;;;;;32.85;21.95;;;;;;;;;;5094922;28;20406;-83
2022/01/19 06:57:36;;;;;;;32.13;22.35;;;;;;;;;;5093921;28;20404;-82
2022/01/19 07:00:04;;;;;;;30.63;21.00;;;;;;;;;;5094551;28;20430;-83
2022/01/19 07:02:32;;;;;;;29.37;20.03;;;;;;;;;;5096140;28;20414;-85
2022/01/19 07:05:00;;;;;;;32.80;21.40;;;;;;;;;;5091474;28;20467;-83
2022/01/19 07:07:27;;;;;;;31.73;20.93;;;;;;;;;;5090851;28;20555;-83
2022/01/19 07:09:54;;;;;;;31.95;21.33;;;;;;;;;;5096703;28;20910;-84
2022/01/19 07:12:21;;;;;;;33.35;21.58;;;;;;;;;;5093510;28;20418;-83
2022/01/19 07:14:48;;;;;;;30.83;20.48;;;;;;;;;;5093869;28;20387;-85
2022/01/19 07:17:15;;;;;;;32.08;20.83;;;;;;;;;;5096459;28;20459;-86
2022/01/19 07:19:43;;;;;;;31.38;20.35;;;;;;;;;;5095650;28;20414;-85
2022/01/19 07:22:10;;;;;;;35.15;21.35;;;;;;;;;;5093219;28;20757;-85
2022/01/19 07:24:37;;;;;;;34.78;22.92;;;;;;;;;;5096606;28;20458;-83
2022/01/19 07:27:04;;;;;;;37.50;23.23;;;;;;;;;;5093620;28;21167;-84
2022/01/19 07:29:31;;;;;;;36.10;24.02;;;;;;;;;;5094174;28;20412;-84
2022/01/19 07:31:58;;;;;;;38.20;23.85;;;;;;;;;;5092856;28;21107;-83
2022/01/19 07:34:26;;;;;;;33.55;23.17;;;;;;;;;;5092022;28;20403;-85
2022/01/19 07:36:55;;;;;;;36.67;23.15;;;;;;;;;;5093385;28;20552;-83
2022/01/19 07:39:22;;;;;;;33.95;22.35;;;;;;;;;;5097982;28;20403;-83
2022/01/19 07:41:49;;;;;;;34.83;21.80;;;;;;;;;;5093407;28;20406;-83
2022/01/19 07:44:19;;;;;;;35.47;22.63;;;;;;;;;;5094707;28;21077;-82
2022/01/19 07:46:45;;;;;;;34.65;22.73;;;;;;;;;;5095502;28;20879;-83
2022/01/19 07:49:12;;;;;;;34.58;21.85;;;;;;;;;;5103713;28;20398;-83
2022/01/19 07:51:39;;;;;;;36.90;22.00;;;;;;;;;;5098199;28;20496;-84
2022/01/19 07:54:07;;;;;;;34.35;22.40;;;;;;;;;;5096641;28;20395;-83
2022/01/19 07:56:34;;;;;;;35.15;21.70;;;;;;;;;;5096896;28;20403;-83
2022/01/19 07:59:01;;;;;;;30.87;20.83;;;;;;;;;;5100964;28;20460;-83
2022/01/19 08:01:30;;;;;;;34.80;21.25;;;;;;;;;;5101190;28;20547;-84
2022/01/19 08:03:58;;;;;;;33.53;20.98;;;;;;;;;;5100293;28;21060;-83
2022/01/19 08:06:25;;;;;;;32.58;20.17;;;;;;;;;;5101652;28;20426;-85
2022/01/19 08:08:52;;;;;;;31.95;20.25;;;;;;;;;;5098804;28;20402;-85
2022/01/19 08:11:20;;;;;;;34.33;21.57;;;;;;;;;;5100456;28;20433;-85
2022/01/19 08:13:47;;;;;;;31.38;22.00;;;;;;;;;;5095149;28;20409;-83
2022/01/19 08:16:14;;;;;;;31.80;21.83;;;;;;;;;;5094783;28;20466;-83
2022/01/19 08:18:41;;;;;;;32.50;21.63;;;;;;;;;;5092277;28;20403;-84
2022/01/19 08:21:08;;;;;;;37.20;24.42;;;;;;;;;;5093775;28;20426;-82
2022/01/19 08:23:35;;;;;;;42.17;24.85;;;;;;;;;;5091791;28;20414;-83
2022/01/19 08:26:02;;;;;;;35.20;24.17;;;;;;;;;;5093750;28;20455;-82
2022/01/19 08:28:30;;;;;;;34.83;23.38;;;;;;;;;;5095886;28;20403;-84
2022/01/19 08:30:57;;;;;;;37.23;23.97;;;;;;;;;;5093011;28;21131;-84
2022/01/19 08:33:24;;;;;;;35.10;24.10;;;;;;;;;;5097914;28;20400;-83
2022/01/19 08:35:51;;;;;;;34.85;24.30;;;;;;;;;;5088612;28;20459;-85
2022/01/19 08:38:18;;;;;;;36.45;24.25;;;;;;;;;;5091067;28;20474;-83
2022/01/19 08:40:45;;;;;;;32.55;23.70;;;;;;;;;;5089020;28;20425;-84
2022/01/19 08:43:12;;;;;;;37.60;23.55;;;;;;;;;;5090914;28;20399;-84
2022/01/19 08:45:41;;;;;;;32.45;22.42;;;;;;;;;;5090531;28;20436;-83
2022/01/19 08:48:08;;;;;;;32.80;21.98;;;;;;;;;;5090644;28;20404;-85
2022/01/19 08:50:35;;;;;;;29.42;20.70;;;;;;;;;;5088524;28;20414;-83
2022/01/19 08:53:03;;;;;;;29.10;19.15;;;;;;;;;;5090562;28;20413;-84
2022/01/19 08:55:30;;;;;;;27.52;18.00;;;;;;;;;;5088817;28;20432;-84
2022/01/19 08:57:58;;;;;;;23.33;16.50;;;;;;;;;;5097743;28;20426;-85
2022/01/19 09:00:24;;;;;;;26.17;17.38;;;;;;;;;;5097093;28;20462;-83
2022/01/19 09:02:53;;;;;;;24.90;17.30;;;;;;;;;;5094817;28;20412;-84
2022/01/19 09:05:20;;;;;;;24.38;16.73;;;;;;;;;;5090989;28;20959;-84
2022/01/19 09:07:47;;;;;;;28.55;18.98;;;;;;;;;;5090396;28;20809;-85
2022/01/19 09:10:15;;;;;;;29.92;19.13;;;;;;;;;;5094444;28;21129;-84
2022/01/19 09:12:44;;;;;;;28.67;18.98;;;;;;;;;;5095586;28;20397;-83
2022/01/19 09:15:12;;;;;;;26.20;17.35;;;;;;;;;;5092289;28;20465;-82
2022/01/19 09:17:41;;;;;;;27.00;16.95;;;;;;;;;;5089135;28;20393;-83
2022/01/19 09:20:11;;;;;;;26.10;18.43;;;;;;;;;;5097886;28;20408;-83
2022/01/19 09:22:38;;;;;;;25.50;16.73;;;;;;;;;;5098394;28;20471;-82
2022/01/19 09:25:08;;;;;;;26.88;17.90;;;;;;;;;;5095371;28;20411;-83
2022/01/19 09:27:37;;;;;;;27.17;18.13;;;;;;;;;;5094098;28;20406;-83
2022/01/19 09:30:06;;;;;;;29.83;19.40;;;;;;;;;;5094803;28;20537;-83
2022/01/19 09:32:33;;;;;;;36.15;21.60;;;;;;;;;;5101987;28;20406;-82
2022/01/19 09:35:06;;;;;;;32.53;21.13;;;;;;;;;;5105603;28;20400;-82
2022/01/19 09:37:35;;;;;;;30.38;20.73;;;;;;;;;;5102600;28;20407;-84
2022/01/19 09:40:04;;;;;;;31.02;20.40;;;;;;;;;;5105591;28;20395;-84
2022/01/19 09:42:31;;;;;;;27.92;20.50;;;;;;;;;;5104241;28;21027;-84
2022/01/19 09:44:58;;;;;;;31.00;20.25;;;;;;;;;;5105018;28;20409;-84
2022/01/19 09:47:25;;;;;;;29.02;20.27;;;;;;;;;;5106847;28;20407;-85
2022/01/19 09:49:51;;;;;;;30.73;20.58;;;;;;;;;;5106251;28;21289;-84
2022/01/19 09:52:18;;;;;;;29.40;19.35;;;;;;;;;;5121137;28;20397;-84
2022/01/19 09:54:46;;;;;;;29.02;20.17;;;;;;;;;;5116631;28;20454;-84
2022/01/19 09:57:13;;;;;;;31.42;20.77;;;;;;;;;;5101464;28;20392;-84
2022/01/19 09:59:40;;;;;;;29.92;20.35;;;;;;;;;;5101395;28;20396;-83
2022/01/19 10:02:09;;;;;;;30.75;21.08;;;;;;;;;;5100200;28;20400;-85
2022/01/19 10:04:37;;;;;;;29.45;20.20;;;;;;;;;;5101197;28;20402;-83
2022/01/19 10:07:16;;;;;;;32.72;19.45;;;;;;;;;;5099208;28;20415;-83
2022/01/19 10:09:58;;;;;;;28.92;20.27;;;;;;;;;;5102330;28;20764;-85
2022/01/19 10:18:12;;;;;;;28.65;20.38;;;;;;;;;;5103389;28;20396;-84
2022/01/19 10:20:40;;;;;;;32.47;20.58;;;;;;;;;;5101421;28;20472;-85
2022/01/19 10:23:28;;;;;;;29.42;20.33;;;;;;;;;;5100719;28;20404;-85
2022/01/19 10:25:57;;;;;;;29.27;20.10;;;;;;;;;;5097684;28;20859;-85
2022/01/19 10:28:23;;;;;;;29.50;20.35;;;;;;;;;;5101782;28;20401;-84
2022/01/19 10:30:50;;;;;;;30.75;20.88;;;;;;;;;;5100046;28;20426;-82
2022/01/19 10:33:19;;;;;;;31.35;20.63;;;;;;;;;;5099182;28;20445;-84
2022/01/19 10:35:48;;;;;;;31.20;21.03;;;;;;;;;;5096867;28;21107;-82
2022/01/19 10:38:18;;;;;;;31.88;21.48;;;;;;;;;;5097691;28;20429;-84
2022/01/19 10:41:05;;;;;;;29.83;21.00;;;;;;;;;;5099362;28;20421;-83
2022/01/19 10:43:36;;;;;;;29.20;21.10;;;;;;;;;;5097429;28;20572;-84
2022/01/19 10:46:24;;;;;;;29.42;20.48;;;;;;;;;;5096954;28;20408;-85
2022/01/19 10:48:57;;;;;;;28.85;20.45;;;;;;;;;;5102260;28;20406;-84
2022/01/19 10:51:24;;;;;;;27.50;20.67;;;;;;;;;;5103025;28;21097;-84
2022/01/19 10:54:08;;;;;;;28.95;21.05;;;;;;;;;;5100578;28;20872;-85
2022/01/19 10:56:36;;;;;;;29.07;20.10;;;;;;;;;;5100526;28;20528;-85
2022/01/19 10:59:07;;;;;;;29.00;20.55;;;;;;;;;;5099861;28;20470;-85
2022/01/19 11:01:37;;;;;;;26.23;19.20;;;;;;;;;;5104747;28;20886;-85
2022/01/19 11:04:31;;;;;;;30.75;20.67;;;;;;;;;;5100123;28;20803;-85
2022/01/19 11:07:02;;;;;;;31.33;20.52;;;;;;;;;;5101524;28;20398;-83
2022/01/19 11:09:30;;;;;;;31.08;20.27;;;;;;;;;;5104018;28;20868;-83
2022/01/19 11:12:02;;;;;;;28.73;19.63;;;;;;;;;;5103078;28;20786;-85
2022/01/19 11:14:29;;;;;;;29.10;20.55;;;;;;;;;;5101361;28;20432;-86
2022/01/19 11:16:56;;;;;;;30.30;20.23;;;;;;;;;;5100059;28;20465;-85
2022/01/19 11:19:23;;;;;;;28.38;19.77;;;;;;;;;;5100508;28;20395;-83
2022/01/19 11:22:14;;;;;;;26.67;19.60;;;;;;;;;;5101028;28;20410;-86
2022/01/19 11:24:52;;;;;;;30.92;21.52;;;;;;;;;;5083188;28;20824;-82
2022/01/19 11:27:22;;;;;;;34.35;22.77;;;;;;;;;;5099488;28;20417;-85
2022/01/19 11:30:11;;;;;;;32.40;21.70;;;;;;;;;;5101996;28;20405;-86
2022/01/19 11:32:39;;;;;;;33.85;22.45;;;;;;;;;;5100748;28;20958;-84
2022/01/19 11:35:06;;;;;;;31.60;22.65;;;;;;;;;;5100766;28;20417;-85
2022/01/19 11:37:37;;;;;;;35.05;23.70;;;;;;;;;;5100622;28;20422;-83
2022/01/19 11:40:10;;;;;;;32.63;23.02;;;;;;;;;;5099516;28;20444;-87
2022/01/19 11:42:40;;;;;;;34.72;23.63;;;;;;;;;;5103230;28;20447;-85
2022/01/19 11:45:09;;;;;;;30.63;22.33;;;;;;;;;;5097999;28;20867;-85
2022/01/19 11:47:38;;;;;;;31.73;22.40;;;;;;;;;;5101586;28;20877;-83
2022/01/19 11:50:08;;;;;;;31.08;21.48;;;;;;;;;;5099941;28;20403;-83
2022/01/19 11:53:06;;;;;;;27.55;20.90;;;;;;;;;;5099330;28;20418;-86
2022/01/19 11:55:33;;;;;;;29.58;21.10;;;;;;;;;;5100346;28;20398;-85
2022/01/19 11:58:15;;;;;;;31.80;21.85;;;;;;;;;;5098089;28;20769;-86
2022/01/19 12:00:44;;;;;;;31.45;23.10;;;;;;;;;;5099942;28;20398;-85
2022/01/19 12:03:19;;;;;;;31.00;22.33;;;;;;;;;;5099859;28;20396;-85
2022/01/19 12:05:47;;;;;;;29.48;22.33;;;;;;;;;;5100729;28;20398;-86
2022/01/19 12:08:29;;;;;;;31.48;21.92;;;;;;;;;;5105340;28;20808;-85
2022/01/19 12:10:58;;;;;;;31.15;21.75;;;;;;;;;;5101993;28;20406;-89
2022/01/19 12:13:34;;;;;;;32.85;22.98;;;;;;;;;;5100713;27;20456;-85
2022/01/19 12:16:06;;;;;;;32.13;23.25;;;;;;;;;;5096387;28;20462;-85
2022/01/19 12:18:42;;;;;;;33.83;24.50;;;;;;;;;;5099771;27;20394;-86
2022/01/19 12:21:11;;;;;;;35.38;25.05;;;;;;;;;;5096816;28;20394;-86
2022/01/19 12:23:39;;;;;;;35.08;24.35;;;;;;;;;;5098606;27;20762;-85
2022/01/19 12:26:08;;;;;;;31.33;23.17;;;;;;;;;;5099544;28;20410;-85
2022/01/19 12:28:41;;;;;;;29.60;22.38;;;;;;;;;;5099791;28;20564;-86
2022/01/19 12:31:38;;;;;;;33.28;23.33;;;;;;;;;;5099464;27;20418;-84
2022/01/19 12:34:21;;;;;;;32.83;24.13;;;;;;;;;;5054930;28;20586;-84
2022/01/19 12:36:53;;;;;;;33.70;25.35;;;;;;;;;;5097923;28;20866;-85
2022/01/19 12:39:37;;;;;;;35.10;25.80;;;;;;;;;;5104111;27;20401;-84
2022/01/19 12:42:12;;;;;;;38.23;26.07;;;;;;;;;;5102069;28;20398;-86
2022/01/19 12:44:44;;;;;;;39.08;27.35;;;;;;;;;;5102977;27;20930;-85
2022/01/19 12:47:49;;;;;;;37.47;26.25;;;;;;;;;;5103207;28;20849;-85
2022/01/19 12:50:41;;;;;;;33.90;26.30;;;;;;;;;;5102538;27;20412;-86
2022/01/19 12:53:15;;;;;;;34.08;26.33;;;;;;;;;;5103250;28;20778;-84
2022/01/19 12:55:46;;;;;;;34.58;26.52;;;;;;;;;;5102056;27;20411;-86
2022/01/19 12:58:16;;;;;;;34.57;26.37;;;;;;;;;;5104861;27;20437;-84
2022/01/19 13:00:48;;;;;;;37.47;27.45;;;;;;;;;;5099996;28;20405;-84
2022/01/19 13:03:21;;;;;;;37.67;26.80;;;;;;;;;;5103768;28;20429;-86
2022/01/19 13:05:51;;;;;;;33.13;26.25;;;;;;;;;;5103363;28;20406;-87
2022/01/19 13:08:28;;;;;;;35.08;28.17;;;;;;;;;;5101671;28;20392;-85
2022/01/19 13:11:03;;;;;;;37.67;28.55;;;;;;;;;;5103448;28;20403;-83
2022/01/19 13:13:30;;;;;;;36.63;26.75;;;;;;;;;;5102463;28;20410;-83
2022/01/19 13:16:01;;;;;;;36.15;27.25;;;;;;;;;;5099853;28;20414;-82
2022/01/19 13:18:34;;;;;;;38.03;26.77;;;;;;;;;;5103218;27;20410;-83
2022/01/19 13:21:04;;;;;;;38.38;27.60;;;;;;;;;;5100573;28;20433;-84
2022/01/19 13:23:36;;;;;;;36.50;28.30;;;;;;;;;;5103401;28;20424;-82
2022/01/19 13:26:05;;;;;;;35.22;27.35;;;;;;;;;;5105046;27;20406;-83
2022/01/19 13:28:34;;;;;;;37.80;29.23;;;;;;;;;;5102401;28;20425;-83
2022/01/19 13:31:25;;;;;;;35.88;28.73;;;;;;;;;;5103643;28;20403;-86
2022/01/19 13:33:55;;;;;;;36.65;27.67;;;;;;;;;;5115119;28;21026;-84
2022/01/19 13:36:29;;;;;;;35.08;27.77;;;;;;;;;;5111481;28;20456;-83
2022/01/19 13:38:57;;;;;;;40.55;29.02;;;;;;;;;;5095981;28;20395;-83
2022/01/19 13:41:25;;;;;;;37.20;27.83;;;;;;;;;;5095854;28;21082;-85
2022/01/19 13:43:54;;;;;;;35.20;26.53;;;;;;;;;;5097867;28;21048;-85
2022/01/19 13:46:25;;;;;;;32.88;26.95;;;;;;;;;;5096102;28;20620;-84
2022/01/19 13:48:59;;;;;;;34.10;27.73;;;;;;;;;;5097706;28;20396;-83
2022/01/19 13:51:31;;;;;;;32.47;26.98;;;;;;;;;;5097348;28;20405;-84
2022/01/19 13:54:04;;;;;;;33.10;26.98;;;;;;;;;;5098115;28;20426;-84
2022/01/19 13:56:35;;;;;;;31.58;26.52;;;;;;;;;;5095229;28;20394;-85
2022/01/19 13:59:09;;;;;;;38.38;29.13;;;;;;;;;;5095289;28;20419;-86
2022/01/19 14:01:48;;;;;;;33.03;27.08;;;;;;;;;;5096778;28;20488;-86
2022/01/19 14:04:18;;;;;;;34.17;26.73;;;;;;;;;;5095641;28;20396;-85
2022/01/19 14:06:48;;;;;;;32.45;27.63;;;;;;;;;;5095520;28;20459;-83
2022/01/19 14:09:18;;;;;;;30.33;26.80;;;;;;;;;;5095034;28;20398;-84
2022/01/19 14:11:47;;;;;;;31.50;27.52;;;;;;;;;;5093001;28;20448;-81
2022/01/19 14:14:21;;;;;;;32.27;26.57;;;;;;;;;;5099167;28;20425;-83
2022/01/19 14:16:50;;;;;;;31.58;25.98;;;;;;;;;;5099997;28;20419;-83
2022/01/19 14:19:21;;;;;;;31.65;26.67;;;;;;;;;;5099869;28;20485;-83
2022/01/19 14:22:06;;;;;;;30.98;27.58;;;;;;;;;;5104259;28;20479;-83
2022/01/19 14:25:00;;;;;;;35.67;27.15;;;;;;;;;;5104220;28;20436;-84
2022/01/19 14:27:42;;;;;;;31.02;26.17;;;;;;;;;;5106132;28;20732;-84
2022/01/19 14:30:17;;;;;;;32.08;26.67;;;;;;;;;;5105472;28;20399;-84
2022/01/19 14:32:47;;;;;;;30.05;26.15;;;;;;;;;;5102911;28;20425;-83
2022/01/19 14:35:26;;;;;;;31.50;27.15;;;;;;;;;;5103284;28;20468;-84
2022/01/19 14:38:16;;;;;;;32.13;26.20;;;;;;;;;;5103106;28;20485;-84
2022/01/19 14:40:57;;;;;;;28.67;23.97;;;;;;;;;;5094172;28;21139;-83
2022/01/19 14:43:26;;;;;;;27.42;22.15;;;;;;;;;;5099610;28;20407;-83
2022/01/19 14:46:02;;;;;;;27.70;21.05;;;;;;;;;;5105385;28;20395;-83
2022/01/19 14:48:36;;;;;;;169.27;82.70;;;;;;;;;;5098999;28;20486;-85
2022/01/19 14:51:17;;;;;;;39.00;25.63;;;;;;;;;;5097797;28;20430;-85
2022/01/19 14:53:44;;;;;;;27.17;19.15;;;;;;;;;;5098610;28;20525;-85
2022/01/19 14:56:11;;;;;;;23.48;17.73;;;;;;;;;;5099584;28;20456;-84
2022/01/19 14:58:38;;;;;;;24.15;18.20;;;;;;;;;;5103817;28;20401;-84
2022/01/19 15:01:04;;;;;;;25.58;18.65;;;;;;;;;;5100667;28;20447;-83
2022/01/19 15:03:33;;;;;;;26.80;19.90;;;;;;;;;;5097535;28;20467;-86
2022/01/19 15:05:59;;;;;;;47.90;32.17;;;;;;;;;;5102313;28;21004;-84
2022/01/19 15:08:26;;;;;;;30.10;20.83;;;;;;;;;;5098616;28;20459;-84
2022/01/19 15:10:53;;;;;;;31.73;21.98;;;;;;;;;;5099232;28;20400;-84
2022/01/19 15:13:20;;;;;;;28.17;21.37;;;;;;;;;;5097855;28;20418;-85
2022/01/19 15:15:47;;;;;;;33.03;24.60;;;;;;;;;;5100085;28;20421;-83
2022/01/19 15:18:14;;;;;;;34.88;26.40;;;;;;;;;;5100251;28;20397;-83
2022/01/19 15:20:42;;;;;;;40.40;27.98;;;;;;;;;;5098489;28;20431;-86
2022/01/19 15:23:09;;;;;;;43.13;32.40;;;;;;;;;;5101609;28;20456;-82
2022/01/19 15:25:39;;;;;;;40.30;30.75;;;;;;;;;;5097223;28;21711;-84
2022/01/19 15:28:07;;;;;;;45.45;32.13;;;;;;;;;;5100385;28;20421;-84
2022/01/19 15:30:36;;;;;;;47.65;33.38;;;;;;;;;;5094672;28;20446;-85
2022/01/19 15:33:03;;;;;;;42.88;31.58;;;;;;;;;;5100953;28;20434;-82
2022/01/19 15:35:30;;;;;;;45.22;33.13;;;;;;;;;;5099518;28;20398;-82
2022/01/19 15:38:01;;;;;;;44.05;31.73;;;;;;;;;;5100036;28;20406;-82
2022/01/19 15:40:28;;;;;;;44.47;31.48;;;;;;;;;;5099317;28;20406;-81
2022/01/19 15:42:56;;;;;;;40.97;31.77;;;;;;;;;;5099454;28;20404;-83
2022/01/19 15:45:23;;;;;;;44.25;32.20;;;;;;;;;;5096981;28;20963;-80
2022/01/19 15:47:51;;;;;;;43.45;31.55;;;;;;;;;;5090569;28;20439;-80
2022/01/19 15:50:18;;;;;;;42.07;31.90;;;;;;;;;;5094760;28;20402;-80